createdAt,value
2018-06-16T04:18:42.856Z,95225.27
2018-06-16T04:23:46.262Z,95229.63
2018-06-16T04:28:49.619Z,95232.61
2018-06-16T04:33:52.982Z,95233.44
2018-06-16T04:38:56.298Z,95236.47
2018-06-16T04:43:59.631Z,95242.00
2018-06-16T04:49:03.735Z,95234.16
2018-06-16T04:54:07.096Z,95231.62
2018-06-16T04:59:10.435Z,95236.53
2018-06-16T05:04:13.763Z,95237.64
2018-06-16T05:09:17.080Z,95237.28
2018-06-16T05:14:20.406Z,95230.45
2018-06-16T05:19:23.735Z,95231.68
2018-06-16T05:24:27.815Z,95226.47
2018-06-16T05:29:31.151Z,95231.55
2018-06-16T05:34:34.494Z,95231.38
2018-06-16T05:39:39.527Z,95226.55
2018-06-16T05:44:42.863Z,95227.05
2018-06-16T05:49:46.960Z,95225.52
2018-06-16T05:54:50.287Z,95228.70
2018-06-16T05:59:53.627Z,95236.19
2018-06-16T06:04:57.718Z,95242.80
2018-06-16T06:10:01.046Z,95245.38
2018-06-16T06:15:04.379Z,95236.02
2018-06-16T06:20:08.476Z,95246.91
2018-06-16T06:25:11.811Z,95245.00
2018-06-16T06:30:15.923Z,95253.41
2018-06-16T06:35:19.258Z,95244.48
2018-06-16T06:40:23.359Z,95244.16
2018-06-16T06:45:26.685Z,95241.81
2018-06-16T06:50:30.032Z,95241.62
2018-06-16T06:55:33.362Z,95246.01
2018-06-16T07:00:36.695Z,95252.67
2018-06-16T07:05:40.028Z,95251.41
2018-06-16T07:10:43.435Z,95239.91
2018-06-16T07:15:47.186Z,95235.10
2018-06-16T07:20:50.517Z,95239.34
2018-06-16T07:25:54.780Z,95239.96
2018-06-16T07:30:58.219Z,95247.42
2018-06-16T07:36:01.550Z,95249.42
2018-06-16T07:41:04.890Z,95248.08
2018-06-16T07:46:08.212Z,95248.84
2018-06-16T07:51:11.563Z,95242.92
2018-06-16T07:56:14.925Z,95242.94
2018-06-16T08:01:18.252Z,95241.33
2018-06-16T08:06:21.589Z,95247.80
2018-06-16T08:11:24.923Z,95244.75
2018-06-16T08:16:28.254Z,95237.34
2018-06-16T08:21:31.594Z,95234.69
2018-06-16T08:26:35.683Z,95228.56
2018-06-16T08:31:39.024Z,95227.83
2018-06-16T08:36:42.392Z,95240.53
2018-06-16T08:41:45.719Z,95229.61
2018-06-16T08:46:49.055Z,95235.19
2018-06-16T08:51:52.394Z,95220.91
2018-06-16T08:56:56.495Z,95229.60
2018-06-16T09:01:59.822Z,95228.89
2018-06-16T09:07:03.923Z,95226.77
2018-06-16T09:12:07.256Z,95229.70
2018-06-16T09:17:10.593Z,95227.27
2018-06-16T09:22:14.682Z,95229.17
2018-06-16T09:27:18.014Z,95232.47
2018-06-16T09:32:21.342Z,95230.44
2018-06-16T09:37:25.445Z,95228.00
2018-06-16T09:42:28.818Z,95223.58
2018-06-16T09:47:32.166Z,95226.96
2018-06-16T09:52:35.505Z,95227.48
2018-06-16T09:57:39.607Z,95223.04
2018-06-16T10:02:42.935Z,95226.89
2018-06-16T10:07:46.267Z,95221.51
2018-06-16T10:12:49.595Z,95229.39
2018-06-16T10:17:52.936Z,95223.52
2018-06-16T10:22:56.302Z,95222.61
2018-06-16T10:27:59.656Z,95225.88
2018-06-16T10:33:03.009Z,95214.23
2018-06-16T10:38:06.618Z,95213.94
2018-06-16T10:43:10.103Z,95215.31
2018-06-16T10:48:13.455Z,95207.97
2018-06-16T10:53:16.782Z,95207.17
2018-06-16T10:58:20.216Z,95205.83
2018-06-16T11:03:23.718Z,95201.34
2018-06-16T11:08:27.047Z,95199.71
2018-06-16T11:13:30.374Z,95199.85
2018-06-16T11:18:33.710Z,95194.55
2018-06-16T11:23:37.059Z,95182.17
2018-06-16T11:28:41.168Z,95176.83
2018-06-16T11:33:44.498Z,95174.53
2018-06-16T11:38:47.831Z,95162.75
2018-06-16T11:43:51.931Z,95159.23
2018-06-16T11:48:55.272Z,95158.25
2018-06-16T11:53:58.600Z,95146.59
2018-06-16T11:59:01.939Z,95147.44
2018-06-16T12:04:05.328Z,95137.11
2018-06-16T12:09:08.664Z,95139.72
2018-06-16T12:14:11.992Z,95134.39
2018-06-16T12:19:15.363Z,95135.86
2018-06-16T12:24:18.693Z,95130.04
2018-06-16T12:29:22.018Z,95126.92
2018-06-16T12:34:25.346Z,95123.69
2018-06-16T12:39:28.679Z,95129.91
2018-06-16T12:44:32.120Z,95134.30
2018-06-16T12:49:35.778Z,95136.73
2018-06-16T12:54:39.116Z,95132.30
2018-06-16T12:59:42.447Z,95128.07
2018-06-16T13:04:45.776Z,95129.02
2018-06-16T13:09:49.902Z,95122.25
2018-06-16T13:14:53.231Z,95116.62
2018-06-16T13:19:56.582Z,95115.86
2018-06-16T13:24:59.944Z,95108.55
2018-06-16T13:30:04.075Z,95107.21
2018-06-16T13:35:07.405Z,95093.55
2018-06-16T13:40:10.732Z,95094.75
2018-06-16T13:45:14.067Z,95101.63
2018-06-16T13:50:17.398Z,95093.61
2018-06-16T13:55:20.730Z,95094.02
2018-06-16T14:00:24.063Z,95086.51
2018-06-16T14:05:27.404Z,95080.36
2018-06-16T14:10:30.726Z,95074.69
2018-06-16T14:15:34.068Z,95084.98
2018-06-16T14:20:37.406Z,95084.56
2018-06-16T14:25:41.507Z,95078.34
2018-06-16T14:30:45.627Z,95082.70
2018-06-16T14:35:48.958Z,95083.28
2018-06-16T14:40:53.053Z,95072.91
2018-06-16T14:45:56.565Z,95067.48
2018-06-16T14:50:59.907Z,95074.36
2018-06-16T14:56:03.328Z,95072.00
2018-06-16T15:01:07.352Z,95069.77
2018-06-16T15:06:10.696Z,95073.65
2018-06-16T15:11:16.008Z,95073.28
2018-06-16T15:16:19.504Z,95070.80
2018-06-16T15:21:22.838Z,95064.16
2018-06-16T15:26:26.167Z,95061.67
2018-06-16T15:31:29.510Z,95053.64
2018-06-16T15:41:44.488Z,95061.14
2018-06-16T15:46:47.820Z,95057.95
2018-06-16T15:51:52.315Z,95048.21
2018-06-16T15:56:55.696Z,95054.69
2018-06-16T16:01:59.451Z,95045.59
2018-06-16T16:07:02.971Z,95031.24
2018-06-16T16:12:06.294Z,95044.44
2018-06-16T16:17:09.638Z,95038.89
2018-06-16T16:22:13.759Z,95042.94
2018-06-16T16:27:17.116Z,95046.56
2018-06-16T16:32:20.478Z,95047.61
2018-06-16T16:37:23.826Z,95052.63
2018-06-16T16:42:27.165Z,95054.34
2018-06-16T16:47:30.491Z,95050.31
2018-06-16T16:52:33.834Z,95056.99
2018-06-16T16:57:39.547Z,95060.42
2018-06-16T17:02:43.651Z,95057.69
2018-06-16T17:07:46.990Z,95059.17
2018-06-16T17:12:51.099Z,95053.16
2018-06-16T17:17:54.446Z,95053.23
2018-06-16T17:22:58.537Z,95052.16
2018-06-16T17:28:01.892Z,95055.97
2018-06-16T17:33:05.235Z,95056.56
2018-06-16T17:38:08.574Z,95060.39
2018-06-16T17:43:11.899Z,95065.03
2018-06-16T17:48:15.245Z,95069.96
2018-06-16T17:53:18.569Z,95075.02
2018-06-16T17:58:21.900Z,95079.55
2018-06-16T18:03:25.226Z,95080.89
2018-06-16T18:08:28.675Z,95085.25
2018-06-16T18:13:31.997Z,95089.78
2018-06-16T18:18:35.438Z,95087.21
2018-06-16T18:23:38.770Z,95092.79
2018-06-16T18:28:42.103Z,95082.02
2018-06-16T18:33:45.434Z,95085.00
2018-06-16T18:38:48.758Z,95090.13
2018-06-16T18:43:52.093Z,95087.27
2018-06-16T18:48:55.432Z,95098.66
2018-06-16T18:53:58.764Z,95095.62
2018-06-16T18:59:02.096Z,95107.28
2018-06-16T19:04:05.440Z,95110.83
2018-06-16T19:09:08.799Z,95114.97
2018-06-16T19:14:12.130Z,95109.77
2018-06-16T19:19:15.463Z,95112.12
2018-06-16T19:24:19.572Z,95117.59
2018-06-16T19:29:22.890Z,95127.89
2018-06-16T19:34:26.256Z,95127.14
2018-06-16T19:39:29.587Z,95133.45
2018-06-16T19:44:32.935Z,95136.56
2018-06-16T19:49:37.036Z,95138.91
2018-06-16T19:54:40.380Z,95139.16
2018-06-16T19:59:44.470Z,95144.09
2018-06-16T20:04:47.790Z,95140.38
2018-06-16T20:09:51.115Z,95143.86
2018-06-16T20:14:54.447Z,95151.52
2018-06-16T20:19:57.784Z,95160.25
2018-06-16T20:25:01.889Z,95162.13
2018-06-16T20:30:06.303Z,95172.36
2018-06-16T20:35:10.708Z,95172.87
2018-06-16T20:40:16.539Z,95172.77
2018-06-16T20:45:20.853Z,95172.39
2018-06-16T20:50:24.460Z,95180.84
2018-06-16T20:55:28.063Z,95174.38
2018-06-16T21:00:31.676Z,95181.88
2018-06-16T21:05:35.354Z,95182.70
2018-06-16T21:10:40.949Z,95179.64
2018-06-16T21:15:45.147Z,95177.36
2018-06-16T21:20:56.275Z,95194.13
2018-06-16T21:25:59.858Z,95198.60
2018-06-16T21:31:04.211Z,95198.87
2018-06-16T21:36:07.569Z,95194.41
2018-06-16T21:41:10.917Z,95193.34
2018-06-16T21:46:14.264Z,95201.05
2018-06-16T21:51:17.606Z,95196.97
2018-06-16T21:56:20.935Z,95198.84
2018-06-16T22:01:24.280Z,95196.31
2018-06-16T22:06:28.370Z,95196.20
2018-06-16T22:11:31.695Z,95204.70
2018-06-16T22:16:35.032Z,95197.21
2018-06-16T22:21:38.364Z,95199.64
2018-06-16T22:26:41.713Z,95200.45
